sensor_id;sensor_type;location;lat;lon;timestamp;temperature;humidity
22471;DHT22;11402;51.374;6.594;2023-09-19T08:27:24;17.70;99.90
22471;DHT22;11402;51.374;6.594;2023-09-19T08:29:53;17.40;99.90
22471;DHT22;11402;51.374;6.594;2023-09-19T08:32:19;17.60;99.90
22471;DHT22;11402;51.374;6.594;2023-09-19T08:34:50;17.60;99.90
22471;DHT22;11402;51.374;6.594;2023-09-19T08:37:15;17.60;99.90
22471;DHT22;11402;51.374;6.594;2023-09-19T08:39:42;17.80;99.90
22471;DHT22;11402;51.374;6.594;2023-09-19T08:42:08;17.90;99.90
22471;DHT22;11402;51.374;6.594;2023-09-19T08:44:37;18.00;99.90
22471;DHT22;11402;51.374;6.594;2023-09-19T08:47:10;17.90;99.90
22471;DHT22;11402;51.374;6.594;2023-09-19T08:52:28;18.10;99.90
22471;DHT22;11402;51.374;6.594;2023-09-19T08:54:59;18.10;99.90
22471;DHT22;11402;51.374;6.594;2023-09-19T08:57:33;18.20;99.90
22471;DHT22;11402;51.374;6.594;2023-09-19T09:00:02;18.20;99.90
22471;DHT22;11402;51.374;6.594;2023-09-19T09:02:31;18.20;99.90
22471;DHT22;11402;51.374;6.594;2023-09-19T09:04:59;18.10;99.90
22471;DHT22;11402;51.374;6.594;2023-09-19T09:07:25;18.20;99.90
22471;DHT22;11402;51.374;6.594;2023-09-19T09:09:53;18.10;99.90
22471;DHT22;11402;51.374;6.594;2023-09-19T09:12:18;18.20;99.90
22471;DHT22;11402;51.374;6.594;2023-09-19T09:14:47;18.20;99.90
22471;DHT22;11402;51.374;6.594;2023-09-19T09:17:16;18.20;99.90
22471;DHT22;11402;51.374;6.594;2023-09-19T09:19:48;18.20;99.90
22471;DHT22;11402;51.374;6.594;2023-09-19T09:22:14;18.30;99.90
22471;DHT22;11402;51.374;6.594;2023-09-19T09:24:58;18.00;99.90
22471;DHT22;11402;51.374;6.594;2023-09-19T09:27:24;18.30;99.90
22471;DHT22;11402;51.374;6.594;2023-09-19T09:29:51;18.70;99.90
22471;DHT22;11402;51.374;6.594;2023-09-19T09:32:25;18.30;99.90
22471;DHT22;11402;51.374;6.594;2023-09-19T09:34:53;18.20;99.90
22471;DHT22;11402;51.374;6.594;2023-09-19T09:37:20;18.20;99.90
22471;DHT22;11402;51.374;6.594;2023-09-19T09:39:53;18.20;99.90
22471;DHT22;11402;51.374;6.594;2023-09-19T09:42:33;18.30;99.90
22471;DHT22;11402;51.374;6.594;2023-09-19T09:45:14;17.00;99.90
22471;DHT22;11402;51.374;6.594;2023-09-19T09:47:48;18.40;99.90
22471;DHT22;11402;51.374;6.594;2023-09-19T09:50:34;18.50;99.90
22471;DHT22;11402;51.374;6.594;2023-09-19T09:53:20;18.40;99.90
22471;DHT22;11402;51.374;6.594;2023-09-19T09:56:03;18.40;99.90
22471;DHT22;11402;51.374;6.594;2023-09-19T09:58:47;18.30;99.90
22471;DHT22;11402;51.374;6.594;2023-09-19T10:01:14;18.30;99.90
22471;DHT22;11402;51.374;6.594;2023-09-19T10:03:43;18.10;99.90
22471;DHT22;11402;51.374;6.594;2023-09-19T10:06:14;17.90;99.90
22471;DHT22;11402;51.374;6.594;2023-09-19T10:09:08;18.10;99.90
22471;DHT22;11402;51.374;6.594;2023-09-19T10:12:06;18.20;99.90
22471;DHT22;11402;51.374;6.594;2023-09-19T10:14:37;18.30;99.90
22471;DHT22;11402;51.374;6.594;2023-09-19T10:17:05;17.80;99.90
22471;DHT22;11402;51.374;6.594;2023-09-19T10:19:45;18.70;99.90
22471;DHT22;11402;51.374;6.594;2023-09-19T10:22:13;18.60;99.90
22471;DHT22;11402;51.374;6.594;2023-09-19T10:24:47;19.00;99.90
22471;DHT22;11402;51.374;6.594;2023-09-19T10:27:16;18.90;99.90
22471;DHT22;11402;51.374;6.594;2023-09-19T10:29:44;19.10;99.90
22471;DHT22;11402;51.374;6.594;2023-09-19T10:32:14;18.60;99.90
22471;DHT22;11402;51.374;6.594;2023-09-19T10:34:46;18.60;99.90
22471;DHT22;11402;51.374;6.594;2023-09-19T10:37:13;18.70;99.90
22471;DHT22;11402;51.374;6.594;2023-09-19T10:39:41;18.80;99.90
22471;DHT22;11402;51.374;6.594;2023-09-19T10:42:14;19.00;99.90
22471;DHT22;11402;51.374;6.594;2023-09-19T10:44:43;19.10;99.90
22471;DHT22;11402;51.374;6.594;2023-09-19T10:47:10;19.10;99.90
22471;DHT22;11402;51.374;6.594;2023-09-19T10:49:46;19.10;99.90
22471;DHT22;11402;51.374;6.594;2023-09-19T10:52:17;19.10;99.90
22471;DHT22;11402;51.374;6.594;2023-09-19T10:54:47;19.00;99.90
22471;DHT22;11402;51.374;6.594;2023-09-19T10:57:21;18.30;99.90
22471;DHT22;11402;51.374;6.594;2023-09-19T11:00:05;19.20;99.90
22471;DHT22;11402;51.374;6.594;2023-09-19T11:03:22;19.20;99.90
22471;DHT22;11402;51.374;6.594;2023-09-19T11:06:02;19.20;99.90
22471;DHT22;11402;51.374;6.594;2023-09-19T11:08:51;19.50;99.90
22471;DHT22;11402;51.374;6.594;2023-09-19T11:36:08;19.40;99.90
22471;DHT22;11402;51.374;6.594;2023-09-19T11:43:48;19.20;99.90
22471;DHT22;11402;51.374;6.594;2023-09-19T11:46:16;19.40;99.90
22471;DHT22;11402;51.374;6.594;2023-09-19T11:48:43;19.50;99.90
22471;DHT22;11402;51.374;6.594;2023-09-19T11:51:14;19.70;99.90
22471;DHT22;11402;51.374;6.594;2023-09-19T11:53:45;19.70;99.90
22471;DHT22;11402;51.374;6.594;2023-09-19T11:56:17;19.80;99.90
22471;DHT22;11402;51.374;6.594;2023-09-19T11:58:46;19.70;99.90
22471;DHT22;11402;51.374;6.594;2023-09-19T12:01:13;19.70;99.90
22471;DHT22;11402;51.374;6.594;2023-09-19T12:03:42;19.80;99.90
22471;DHT22;11402;51.374;6.594;2023-09-19T12:06:13;19.80;99.90
22471;DHT22;11402;51.374;6.594;2023-09-19T12:08:43;19.70;99.90
22471;DHT22;11402;51.374;6.594;2023-09-19T12:11:16;19.70;99.90
22471;DHT22;11402;51.374;6.594;2023-09-19T12:13:46;19.90;99.90
22471;DHT22;11402;51.374;6.594;2023-09-19T12:16:16;19.80;99.90
22471;DHT22;11402;51.374;6.594;2023-09-19T12:18:45;19.80;99.90
22471;DHT22;11402;51.374;6.594;2023-09-19T12:21:27;19.80;99.90
22471;DHT22;11402;51.374;6.594;2023-09-19T12:23:59;19.90;99.90
22471;DHT22;11402;51.374;6.594;2023-09-19T12:26:26;19.90;99.90
22471;DHT22;11402;51.374;6.594;2023-09-19T12:28:55;19.90;99.90
22471;DHT22;11402;51.374;6.594;2023-09-19T12:31:21;19.90;99.90
22471;DHT22;11402;51.374;6.594;2023-09-19T12:33:56;19.90;99.90
22471;DHT22;11402;51.374;6.594;2023-09-19T12:36:22;20.00;99.90
22471;DHT22;11402;51.374;6.594;2023-09-19T12:38:54;20.00;99.90
22471;DHT22;11402;51.374;6.594;2023-09-19T12:41:20;20.10;99.90
22471;DHT22;11402;51.374;6.594;2023-09-19T12:43:47;20.20;99.90
22471;DHT22;11402;51.374;6.594;2023-09-19T12:46:13;20.20;99.90
22471;DHT22;11402;51.374;6.594;2023-09-19T12:48:41;20.20;99.90
22471;DHT22;11402;51.374;6.594;2023-09-19T12:51:11;20.30;99.90
22471;DHT22;11402;51.374;6.594;2023-09-19T12:53:45;20.30;99.90
22471;DHT22;11402;51.374;6.594;2023-09-19T12:56:15;20.30;99.90
22471;DHT22;11402;51.374;6.594;2023-09-19T12:58:58;20.30;99.90
22471;DHT22;11402;51.374;6.594;2023-09-19T13:01:26;20.20;99.90
22471;DHT22;11402;51.374;6.594;2023-09-19T13:04:11;20.20;99.90
22471;DHT22;11402;51.374;6.594;2023-09-19T13:06:43;20.00;99.90
22471;DHT22;11402;51.374;6.594;2023-09-19T13:09:10;20.00;99.90
22471;DHT22;11402;51.374;6.594;2023-09-19T13:11:37;20.20;99.90
22471;DHT22;11402;51.374;6.594;2023-09-19T13:17:14;20.20;99.90
22471;DHT22;11402;51.374;6.594;2023-09-19T13:19:42;20.30;99.90
22471;DHT22;11402;51.374;6.594;2023-09-19T13:22:39;20.40;99.90
22471;DHT22;11402;51.374;6.594;2023-09-19T13:25:19;20.40;99.90
22471;DHT22;11402;51.374;6.594;2023-09-19T13:27:47;20.40;99.90
22471;DHT22;11402;51.374;6.594;2023-09-19T13:30:18;20.30;99.90
22471;DHT22;11402;51.374;6.594;2023-09-19T13:32:44;20.30;99.90
22471;DHT22;11402;51.374;6.594;2023-09-19T13:35:12;20.30;99.90
22471;DHT22;11402;51.374;6.594;2023-09-19T13:37:39;20.20;99.90
22471;DHT22;11402;51.374;6.594;2023-09-19T13:40:13;20.20;99.90
22471;DHT22;11402;51.374;6.594;2023-09-19T13:42:39;20.10;99.90
22471;DHT22;11402;51.374;6.594;2023-09-19T13:45:08;20.00;99.90
22471;DHT22;11402;51.374;6.594;2023-09-19T13:47:38;20.10;99.90
22471;DHT22;11402;51.374;6.594;2023-09-19T13:50:04;20.10;99.90
22471;DHT22;11402;51.374;6.594;2023-09-19T13:52:31;20.10;99.90
22471;DHT22;11402;51.374;6.594;2023-09-19T13:54:57;20.10;99.90
22471;DHT22;11402;51.374;6.594;2023-09-19T13:57:26;20.00;99.90
22471;DHT22;11402;51.374;6.594;2023-09-19T13:59:53;19.90;99.90
22471;DHT22;11402;51.374;6.594;2023-09-19T14:02:22;20.10;99.90
22471;DHT22;11402;51.374;6.594;2023-09-19T14:04:53;20.10;99.90
22471;DHT22;11402;51.374;6.594;2023-09-19T14:07:19;19.90;99.90
22471;DHT22;11402;51.374;6.594;2023-09-19T14:09:45;20.30;99.90
22471;DHT22;11402;51.374;6.594;2023-09-19T14:12:11;19.80;99.90
22471;DHT22;11402;51.374;6.594;2023-09-19T14:14:37;20.00;99.90
22471;DHT22;11402;51.374;6.594;2023-09-19T14:17:05;20.30;99.90
22471;DHT22;11402;51.374;6.594;2023-09-19T14:19:32;19.50;99.90
22471;DHT22;11402;51.374;6.594;2023-09-19T14:21:58;19.90;99.90
22471;DHT22;11402;51.374;6.594;2023-09-19T14:24:25;20.00;99.90
22471;DHT22;11402;51.374;6.594;2023-09-19T14:26:51;20.10;99.90
22471;DHT22;11402;51.374;6.594;2023-09-19T14:29:16;19.90;99.90
22471;DHT22;11402;51.374;6.594;2023-09-19T14:31:43;19.90;99.90
22471;DHT22;11402;51.374;6.594;2023-09-19T14:34:09;19.70;99.90
22471;DHT22;11402;51.374;6.594;2023-09-19T14:36:38;19.90;99.90
22471;DHT22;11402;51.374;6.594;2023-09-19T14:39:06;19.90;99.90
22471;DHT22;11402;51.374;6.594;2023-09-19T14:41:33;20.50;99.90
22471;DHT22;11402;51.374;6.594;2023-09-19T14:43:59;20.00;99.90
22471;DHT22;11402;51.374;6.594;2023-09-19T14:46:25;20.00;99.90
22471;DHT22;11402;51.374;6.594;2023-09-19T14:48:53;20.10;99.90
22471;DHT22;11402;51.374;6.594;2023-09-19T14:51:19;19.80;99.90
22471;DHT22;11402;51.374;6.594;2023-09-19T14:53:45;19.90;99.90
22471;DHT22;11402;51.374;6.594;2023-09-19T14:56:12;20.10;99.90
22471;DHT22;11402;51.374;6.594;2023-09-19T14:58:41;20.20;99.90
22471;DHT22;11402;51.374;6.594;2023-09-19T15:01:11;20.20;99.90
22471;DHT22;11402;51.374;6.594;2023-09-19T15:03:38;19.90;99.90
22471;DHT22;11402;51.374;6.594;2023-09-19T15:06:12;19.80;99.90
22471;DHT22;11402;51.374;6.594;2023-09-19T15:08:41;19.80;99.90
22471;DHT22;11402;51.374;6.594;2023-09-19T15:11:13;19.90;99.90
22471;DHT22;11402;51.374;6.594;2023-09-19T15:13:38;19.90;99.90
22471;DHT22;11402;51.374;6.594;2023-09-19T15:16:06;19.60;99.90
22471;DHT22;11402;51.374;6.594;2023-09-19T15:18:35;19.70;99.90
22471;DHT22;11402;51.374;6.594;2023-09-19T15:21:07;19.90;99.90
22471;DHT22;11402;51.374;6.594;2023-09-19T15:23:34;19.90;99.90
22471;DHT22;11402;51.374;6.594;2023-09-19T15:26:03;20.00;99.90
22471;DHT22;11402;51.374;6.594;2023-09-19T15:28:29;20.00;99.90
22471;DHT22;11402;51.374;6.594;2023-09-19T15:31:07;20.10;99.90
22471;DHT22;11402;51.374;6.594;2023-09-19T15:33:33;20.10;99.90
22471;DHT22;11402;51.374;6.594;2023-09-19T15:36:05;20.10;99.90
22471;DHT22;11402;51.374;6.594;2023-09-19T15:38:54;20.00;99.90
22471;DHT22;11402;51.374;6.594;2023-09-19T15:41:19;20.10;99.90
22471;DHT22;11402;51.374;6.594;2023-09-19T15:43:45;20.10;99.90
22471;DHT22;11402;51.374;6.594;2023-09-19T15:46:11;19.90;99.90
22471;DHT22;11402;51.374;6.594;2023-09-19T15:48:37;19.80;99.90
22471;DHT22;11402;51.374;6.594;2023-09-19T15:51:03;20.00;99.90
22471;DHT22;11402;51.374;6.594;2023-09-19T15:56:14;19.70;99.90
22471;DHT22;11402;51.374;6.594;2023-09-19T15:58:43;19.70;99.90
22471;DHT22;11402;51.374;6.594;2023-09-19T16:01:09;19.90;99.90
22471;DHT22;11402;51.374;6.594;2023-09-19T16:03:43;19.60;99.90
22471;DHT22;11402;51.374;6.594;2023-09-19T16:06:18;19.90;99.90
22471;DHT22;11402;51.374;6.594;2023-09-19T16:08:45;19.80;99.90
22471;DHT22;11402;51.374;6.594;2023-09-19T16:11:15;19.70;99.90
22471;DHT22;11402;51.374;6.594;2023-09-19T16:13:42;19.70;99.90
22471;DHT22;11402;51.374;6.594;2023-09-19T16:16:09;19.90;99.90
22471;DHT22;11402;51.374;6.594;2023-09-19T16:18:38;19.90;99.90
22471;DHT22;11402;51.374;6.594;2023-09-19T16:21:06;19.90;99.90
22471;DHT22;11402;51.374;6.594;2023-09-19T16:23:33;19.90;99.90
22471;DHT22;11402;51.374;6.594;2023-09-19T16:26:08;19.90;99.90
22471;DHT22;11402;51.374;6.594;2023-09-19T16:28:36;20.00;99.90
22471;DHT22;11402;51.374;6.594;2023-09-19T16:31:06;20.00;99.90
22471;DHT22;11402;51.374;6.594;2023-09-19T16:33:33;20.00;99.90
22471;DHT22;11402;51.374;6.594;2023-09-19T16:36:00;20.00;99.90
22471;DHT22;11402;51.374;6.594;2023-09-19T16:38:27;19.90;99.90
22471;DHT22;11402;51.374;6.594;2023-09-19T16:40:57;19.90;99.90
22471;DHT22;11402;51.374;6.594;2023-09-19T16:43:26;19.80;99.90
22471;DHT22;11402;51.374;6.594;2023-09-19T16:45:56;19.70;99.90
